createdAt,value
2023-04-19T00:02:16.901Z,11.60
2023-04-19T00:04:45.300Z,11.60
2023-04-19T00:07:13.412Z,11.70
2023-04-19T00:09:40.726Z,11.70
2023-04-19T00:12:08.088Z,11.70
2023-04-19T00:14:35.750Z,11.70
2023-04-19T00:17:04.611Z,11.70
2023-04-19T00:19:32.065Z,11.70
2023-04-19T00:21:59.376Z,11.70
2023-04-19T00:24:26.665Z,11.70
2023-04-19T00:26:54.127Z,11.80
2023-04-19T00:29:21.523Z,11.80
2023-04-19T00:31:49.243Z,11.80
2023-04-19T00:34:16.840Z,11.80
2023-04-19T00:36:44.457Z,11.80
2023-04-19T00:39:13.774Z,11.80
2023-04-19T00:41:41.041Z,11.80
2023-04-19T00:44:08.763Z,11.80
2023-04-19T00:46:38.047Z,11.80
2023-04-19T00:49:05.539Z,11.80
2023-04-19T00:51:34.189Z,11.80
2023-04-19T00:54:03.311Z,11.80
2023-04-19T00:56:31.803Z,11.80
2023-04-19T00:58:59.635Z,11.80
2023-04-19T01:01:27.055Z,11.80
2023-04-19T01:03:54.643Z,11.70
2023-04-19T01:06:22.320Z,11.70
2023-04-19T01:08:49.693Z,11.70
2023-04-19T01:11:16.922Z,11.70
2023-04-19T01:13:45.758Z,11.70
2023-04-19T01:16:13.341Z,11.70
2023-04-19T01:18:41.389Z,11.70
2023-04-19T01:21:09.141Z,11.70
2023-04-19T01:23:39.046Z,11.70
2023-04-19T01:26:06.515Z,11.70
2023-04-19T01:28:33.808Z,11.70
2023-04-19T01:31:01.660Z,11.70
2023-04-19T01:33:29.227Z,11.70
2023-04-19T01:35:56.421Z,11.70
2023-04-19T01:38:23.872Z,11.70
2023-04-19T01:40:51.108Z,11.70
2023-04-19T01:43:18.870Z,11.70
2023-04-19T01:45:46.459Z,11.70
2023-04-19T01:48:13.874Z,11.70
2023-04-19T01:50:41.123Z,11.70
2023-04-19T01:53:08.453Z,11.70
2023-04-19T01:55:35.741Z,11.70
2023-04-19T01:58:03.058Z,11.70
2023-04-19T02:00:30.453Z,11.70
2023-04-19T02:02:57.864Z,11.70
2023-04-19T02:05:25.490Z,11.70
2023-04-19T02:07:54.384Z,11.70
2023-04-19T02:10:21.823Z,11.70
2023-04-19T02:12:49.081Z,11.70
2023-04-19T02:15:16.288Z,11.70
2023-04-19T02:17:43.722Z,11.70
2023-04-19T02:20:11.261Z,11.80
2023-04-19T02:22:38.727Z,11.80
2023-04-19T02:25:06.863Z,11.80
2023-04-19T02:27:34.340Z,11.80
2023-04-19T02:30:02.058Z,11.80
2023-04-19T02:32:31.822Z,11.80
2023-04-19T02:34:59.356Z,11.80
2023-04-19T02:37:26.713Z,11.80
2023-04-19T02:39:57.740Z,11.80
2023-04-19T02:42:25.198Z,11.80
2023-04-19T02:44:54.376Z,11.90
2023-04-19T02:47:25.028Z,11.90
2023-04-19T02:49:52.864Z,11.90
2023-04-19T02:52:20.828Z,11.90
2023-04-19T02:54:48.494Z,11.90
2023-04-19T02:57:16.080Z,11.90
2023-04-19T02:59:44.610Z,11.90
2023-04-19T03:02:12.254Z,11.90
2023-04-19T03:04:39.726Z,11.90
2023-04-19T03:07:08.846Z,12.00
2023-04-19T03:09:36.453Z,12.00
2023-04-19T03:12:05.271Z,12.00
2023-04-19T03:14:34.133Z,12.00
2023-04-19T03:17:01.987Z,12.00
2023-04-19T03:19:29.857Z,12.00
2023-04-19T03:21:57.232Z,12.00
2023-04-19T03:24:29.195Z,11.90
2023-04-19T03:26:58.118Z,12.00
2023-04-19T03:29:29.141Z,12.00
2023-04-19T03:32:07.534Z,12.00
2023-04-19T03:34:34.789Z,12.00
2023-04-19T03:37:02.149Z,12.00
2023-04-19T03:39:31.790Z,12.00
2023-04-19T03:42:03.549Z,12.00
2023-04-19T03:45:06.881Z,12.00
2023-04-19T03:47:39.059Z,12.00
2023-04-19T03:50:07.809Z,12.00
2023-04-19T03:52:36.173Z,12.00
2023-04-19T03:55:04.079Z,12.00
2023-04-19T03:57:37.877Z,11.90
2023-04-19T04:00:14.083Z,11.90
2023-04-19T04:02:41.438Z,11.90
2023-04-19T04:05:09.619Z,11.80
2023-04-19T04:07:37.748Z,11.80
2023-04-19T04:10:06.165Z,11.80
2023-04-19T04:12:38.657Z,11.80
2023-04-19T04:15:08.664Z,11.70
2023-04-19T04:17:39.017Z,11.70
2023-04-19T04:20:08.937Z,11.70
2023-04-19T04:22:42.061Z,11.70
2023-04-19T04:25:10.778Z,11.70
2023-04-19T04:27:39.427Z,11.60
2023-04-19T04:30:12.415Z,11.60
2023-04-19T04:32:41.232Z,11.60
2023-04-19T04:35:11.012Z,11.60
2023-04-19T04:37:54.017Z,11.70
2023-04-19T04:40:21.915Z,11.70
2023-04-19T04:42:49.534Z,11.70
2023-04-19T04:45:18.344Z,11.60
2023-04-19T04:47:48.936Z,11.60
2023-04-19T04:50:17.198Z,11.60
2023-04-19T04:52:45.137Z,11.60
2023-04-19T04:55:32.871Z,11.60
2023-04-19T04:58:00.479Z,11.60
2023-04-19T05:00:42.802Z,11.60
2023-04-19T05:03:11.593Z,11.60
2023-04-19T05:05:48.091Z,11.50
2023-04-19T05:08:15.688Z,11.50
2023-04-19T05:10:46.109Z,11.50
2023-04-19T05:13:14.713Z,11.40
2023-04-19T05:15:42.345Z,11.40
2023-04-19T05:18:10.194Z,11.40
2023-04-19T05:20:39.137Z,11.40
2023-04-19T05:23:13.738Z,11.40
2023-04-19T05:25:41.772Z,11.40
2023-04-19T05:28:09.527Z,11.30
2023-04-19T05:31:03.380Z,11.30
2023-04-19T05:33:35.521Z,11.30
2023-04-19T05:36:03.027Z,11.30
2023-04-19T05:38:30.425Z,11.30
2023-04-19T05:41:00.409Z,11.20
2023-04-19T05:43:27.798Z,11.20
2023-04-19T05:45:55.838Z,11.20
2023-04-19T05:48:23.426Z,11.20
2023-04-19T05:51:12.174Z,11.20
2023-04-19T05:54:03.246Z,11.20
2023-04-19T05:56:30.926Z,11.20
2023-04-19T05:59:00.024Z,11.20
2023-04-19T06:01:27.869Z,11.20
2023-04-19T06:03:55.854Z,11.20
2023-04-19T06:06:25.138Z,11.20
2023-04-19T06:08:54.743Z,11.20
2023-04-19T06:11:31.486Z,11.20
2023-04-19T06:14:06.391Z,11.20
2023-04-19T06:16:34.023Z,11.20
2023-04-19T06:19:01.570Z,11.20
2023-04-19T06:21:31.694Z,11.20
2023-04-19T06:23:59.138Z,11.20
2023-04-19T06:26:26.991Z,11.20
2023-04-19T06:28:54.428Z,11.10
2023-04-19T06:31:22.141Z,11.00
2023-04-19T06:33:49.848Z,11.00
2023-04-19T06:36:17.665Z,11.00
2023-04-19T06:38:46.281Z,11.00
2023-04-19T06:41:13.786Z,10.90
2023-04-19T06:43:42.854Z,10.90
2023-04-19T06:46:11.402Z,10.90
2023-04-19T06:48:38.834Z,10.90
2023-04-19T06:51:06.493Z,10.90
2023-04-19T06:53:34.492Z,10.90
2023-04-19T06:56:03.349Z,10.90
2023-04-19T06:58:34.549Z,10.90
2023-04-19T07:01:04.643Z,10.90
2023-04-19T07:03:33.094Z,10.90
2023-04-19T07:06:00.797Z,10.90
2023-04-19T07:08:42.350Z,10.90
2023-04-19T07:11:16.164Z,10.90
2023-04-19T07:13:43.656Z,10.90
2023-04-19T07:16:11.127Z,10.90
2023-04-19T07:18:38.631Z,10.90
2023-04-19T07:21:06.034Z,10.90
2023-04-19T07:23:33.678Z,10.90
2023-04-19T07:26:01.436Z,10.90
2023-04-19T07:28:29.689Z,11.00
2023-04-19T07:30:57.756Z,10.90
2023-04-19T07:33:28.000Z,11.00
2023-04-19T07:35:56.899Z,10.90
2023-04-19T07:38:24.898Z,10.90
2023-04-19T07:40:52.786Z,10.90
2023-04-19T07:43:20.248Z,10.90
2023-04-19T07:45:48.220Z,10.90
2023-04-19T07:48:15.561Z,10.80
2023-04-19T07:50:43.300Z,10.80
2023-04-19T07:53:10.833Z,10.70
2023-04-19T07:55:39.360Z,10.70
2023-04-19T07:58:06.816Z,10.70
2023-04-19T08:00:37.899Z,10.70
2023-04-19T08:03:05.867Z,10.60
2023-04-19T08:05:34.231Z,10.60
2023-04-19T08:08:01.698Z,10.60
2023-04-19T08:10:30.695Z,10.50
2023-04-19T08:13:05.706Z,10.50
2023-04-19T08:18:05.634Z,10.40
2023-04-19T08:20:33.900Z,10.40
2023-04-19T08:23:07.520Z,10.20
2023-04-19T08:25:42.118Z,10.20
2023-04-19T08:28:09.954Z,10.10
2023-04-19T08:30:37.437Z,10.00
2023-04-19T08:33:05.065Z,10.00
2023-04-19T08:35:34.261Z,9.90
2023-04-19T08:38:03.327Z,9.90
2023-04-19T08:40:31.881Z,9.90
2023-04-19T08:42:59.406Z,9.80
2023-04-19T08:45:30.816Z,9.80
2023-04-19T08:48:02.338Z,9.80
2023-04-19T08:50:35.809Z,9.90
2023-04-19T08:55:59.234Z,10.10
2023-04-19T09:01:12.787Z,10.30
2023-04-19T09:03:59.540Z,10.30
2023-04-19T09:06:36.738Z,10.40
2023-04-19T09:11:53.991Z,10.60
2023-04-19T09:14:22.852Z,10.70
2023-04-19T09:16:52.374Z,10.90
2023-04-19T09:19:25.020Z,11.10
2023-04-19T09:21:54.732Z,11.50
2023-04-19T09:25:14.496Z,11.90
2023-04-19T09:27:35.001Z,12.30
2023-04-19T09:30:04.186Z,12.70
2023-04-19T09:32:46.817Z,13.10
2023-04-19T09:35:14.734Z,13.50
2023-04-19T09:40:24.662Z,14.30
2023-04-19T09:48:03.454Z,15.20
2023-04-19T09:50:32.197Z,15.20
2023-04-19T09:53:01.763Z,15.40
2023-04-19T09:55:36.441Z,15.30
2023-04-19T09:58:12.704Z,15.40
2023-04-19T10:00:50.058Z,15.50
2023-04-19T10:03:22.214Z,15.50
2023-04-19T10:05:50.443Z,15.60
2023-04-19T10:08:18.684Z,15.60
2023-04-19T10:10:49.413Z,15.50
2023-04-19T10:13:21.307Z,15.50
2023-04-19T10:15:54.159Z,15.30
2023-04-19T10:18:27.393Z,15.30
2023-04-19T10:21:03.163Z,15.10
2023-04-19T10:23:32.779Z,14.90
2023-04-19T10:26:00.530Z,14.70
2023-04-19T10:28:31.288Z,14.60
2023-04-19T10:30:59.234Z,14.50
2023-04-19T10:33:28.209Z,14.30
2023-04-19T10:35:58.003Z,14.20
2023-04-19T10:38:49.412Z,14.20
2023-04-19T10:41:18.880Z,14.10
2023-04-19T10:44:08.647Z,14.10
2023-04-19T10:46:38.627Z,14.10
2023-04-19T10:49:09.083Z,14.10
2023-04-19T10:51:39.222Z,14.10
2023-04-19T10:54:26.569Z,14.10
2023-04-19T10:57:11.381Z,14.00
2023-04-19T10:59:40.961Z,14.00
2023-04-19T11:02:32.785Z,14.00
2023-04-19T11:05:01.889Z,14.10
2023-04-19T11:07:37.348Z,14.10
2023-04-19T11:10:05.393Z,14.10
2023-04-19T11:12:34.169Z,14.10
2023-04-19T11:15:02.821Z,14.10
2023-04-19T11:17:32.397Z,14.10
2023-04-19T11:20:08.470Z,14.20
2023-04-19T11:22:40.064Z,14.20
2023-04-19T11:25:21.163Z,14.20
2023-04-19T11:27:51.216Z,14.20
2023-04-19T11:30:23.004Z,14.30
2023-04-19T11:32:53.860Z,14.30
2023-04-19T11:35:23.234Z,14.30
2023-04-19T11:37:51.682Z,14.40
2023-04-19T11:40:23.297Z,14.40
2023-04-19T11:43:02.558Z,14.40
2023-04-19T11:45:34.821Z,14.40
2023-04-19T11:48:05.876Z,14.40
2023-04-19T11:50:40.668Z,14.40
2023-04-19T11:53:21.948Z,14.30
2023-04-19T11:55:51.661Z,14.30
2023-04-19T11:58:32.232Z,14.30
2023-04-19T12:01:08.708Z,14.30
2023-04-19T12:03:57.676Z,14.30
2023-04-19T12:06:33.201Z,14.30
2023-04-19T12:09:00.822Z,14.30
2023-04-19T12:11:44.420Z,14.30
2023-04-19T12:14:15.919Z,14.40
2023-04-19T12:16:44.885Z,14.40
2023-04-19T12:19:18.919Z,14.40
2023-04-19T12:21:47.571Z,14.40
2023-04-19T12:24:16.010Z,14.50
2023-04-19T12:26:57.813Z,14.60
2023-04-19T12:29:30.841Z,14.70
2023-04-19T12:31:58.322Z,14.70
2023-04-19T12:34:26.055Z,14.70
2023-04-19T12:36:54.027Z,14.70
2023-04-19T12:39:21.933Z,14.70
2023-04-19T12:41:49.937Z,14.70
2023-04-19T12:44:17.558Z,14.80
2023-04-19T12:46:45.238Z,14.80
2023-04-19T12:49:12.536Z,14.90
2023-04-19T12:51:40.007Z,14.80
2023-04-19T12:54:07.556Z,14.80
2023-04-19T12:56:35.288Z,14.70
2023-04-19T12:59:02.662Z,14.70
2023-04-19T13:01:32.147Z,14.80
2023-04-19T13:03:59.905Z,14.80
2023-04-19T13:06:27.741Z,14.80
2023-04-19T13:08:55.379Z,14.90
2023-04-19T13:11:27.342Z,14.90
2023-04-19T13:13:54.704Z,15.00
2023-04-19T13:16:22.682Z,15.10
2023-04-19T13:18:52.496Z,15.20
2023-04-19T13:21:20.300Z,15.30
2023-04-19T13:23:47.758Z,15.30
2023-04-19T13:26:16.239Z,15.20
2023-04-19T13:28:43.945Z,15.10
2023-04-19T13:31:11.692Z,15.00
2023-04-19T13:33:39.388Z,14.90
2023-04-19T13:36:07.749Z,14.90
2023-04-19T13:38:35.444Z,14.90
2023-04-19T13:41:03.996Z,14.90
2023-04-19T13:43:31.486Z,14.90
2023-04-19T13:45:58.972Z,14.80
2023-04-19T13:48:28.768Z,14.80
2023-04-19T13:50:57.207Z,14.80
2023-04-19T13:53:26.996Z,14.70
2023-04-19T13:55:55.246Z,14.80
2023-04-19T13:58:24.951Z,14.70
2023-04-19T14:00:53.618Z,14.70
2023-04-19T14:03:23.384Z,14.60
2023-04-19T14:05:51.179Z,14.60
2023-04-19T14:08:18.639Z,14.60
2023-04-19T14:10:46.344Z,14.60
2023-04-19T14:13:14.009Z,14.50
2023-04-19T14:15:41.550Z,14.50
2023-04-19T14:18:09.060Z,14.60
2023-04-19T14:20:36.597Z,14.60
2023-04-19T14:23:04.228Z,14.50
2023-04-19T14:25:31.951Z,14.50
2023-04-19T14:27:59.326Z,14.40
2023-04-19T14:30:27.271Z,14.30
2023-04-19T14:32:55.761Z,14.20
2023-04-19T14:35:23.559Z,14.20
2023-04-19T14:37:51.044Z,14.20
2023-04-19T14:40:19.991Z,14.10
2023-04-19T14:42:47.358Z,14.00
2023-04-19T14:45:15.263Z,13.90
2023-04-19T14:47:43.129Z,13.90
2023-04-19T14:50:10.800Z,13.80
2023-04-19T14:52:38.185Z,13.80
2023-04-19T14:55:06.276Z,13.90
2023-04-19T14:57:33.725Z,13.80
2023-04-19T15:00:02.236Z,13.80
2023-04-19T15:02:30.004Z,13.90
2023-04-19T15:04:58.050Z,13.90
2023-04-19T15:07:26.598Z,13.90
2023-04-19T15:09:54.179Z,14.00
2023-04-19T15:12:21.612Z,14.00
2023-04-19T15:14:49.356Z,13.90
2023-04-19T15:17:17.103Z,14.00
2023-04-19T15:19:46.932Z,14.00
2023-04-19T15:22:14.451Z,13.90
2023-04-19T15:24:42.575Z,13.90
2023-04-19T15:27:10.165Z,13.70
2023-04-19T15:29:39.510Z,13.60
2023-04-19T15:32:07.345Z,13.50
2023-04-19T15:34:35.567Z,13.40
2023-04-19T15:37:05.900Z,13.30
2023-04-19T15:39:33.501Z,13.20
2023-04-19T15:42:01.984Z,13.10
2023-04-19T15:44:30.062Z,13.10
2023-04-19T15:46:57.353Z,13.00
2023-04-19T15:49:24.757Z,12.90
2023-04-19T15:51:52.414Z,12.90
2023-04-19T15:54:22.005Z,12.80
2023-04-19T15:56:49.371Z,12.80
2023-04-19T15:59:16.985Z,12.60
2023-04-19T16:01:44.511Z,12.50
2023-04-19T16:04:12.039Z,12.50
2023-04-19T16:06:39.898Z,12.50
2023-04-19T16:09:08.427Z,12.40
2023-04-19T16:11:36.044Z,12.40
2023-04-19T16:14:03.452Z,12.50
2023-04-19T16:16:34.251Z,12.50
2023-04-19T16:19:01.998Z,12.50
2023-04-19T16:21:29.588Z,12.60
2023-04-19T16:23:57.214Z,12.60
2023-04-19T16:26:25.482Z,12.60
2023-04-19T16:28:53.055Z,12.60
2023-04-19T16:31:20.577Z,12.60
2023-04-19T16:33:48.038Z,12.60
2023-04-19T16:36:15.465Z,12.60
2023-04-19T16:38:42.860Z,12.60
2023-04-19T16:41:11.494Z,12.60
2023-04-19T16:43:39.041Z,12.60
2023-04-19T16:46:07.337Z,12.60
2023-04-19T16:48:34.827Z,12.50
2023-04-19T16:51:02.424Z,12.50
2023-04-19T16:53:31.880Z,12.50
2023-04-19T16:56:00.408Z,12.50
2023-04-19T16:58:27.932Z,12.50
2023-04-19T17:00:56.829Z,12.40
2023-04-19T17:03:24.662Z,12.40
2023-04-19T17:05:52.173Z,12.30
2023-04-19T17:08:21.353Z,12.20
2023-04-19T17:10:48.870Z,12.20
2023-04-19T17:13:16.437Z,12.20
2023-04-19T17:15:44.260Z,12.20
2023-04-19T17:18:11.763Z,12.10
2023-04-19T17:20:39.327Z,12.10
2023-04-19T17:23:07.021Z,12.00
2023-04-19T17:25:34.451Z,12.00
2023-04-19T17:28:02.230Z,11.90
2023-04-19T17:30:29.637Z,11.90
2023-04-19T17:32:57.116Z,11.90
2023-04-19T17:35:26.067Z,11.80
2023-04-19T17:37:53.498Z,11.80
2023-04-19T17:40:21.235Z,11.70
2023-04-19T17:42:48.751Z,11.60
2023-04-19T17:45:16.473Z,11.60
2023-04-19T17:47:44.319Z,11.50
2023-04-19T17:50:13.437Z,11.30
2023-04-19T17:52:40.960Z,11.20
2023-04-19T17:55:09.270Z,11.10
2023-04-19T17:57:36.839Z,11.00
2023-04-19T18:00:07.920Z,10.90
2023-04-19T18:02:38.612Z,10.80
2023-04-19T18:05:07.861Z,10.70
2023-04-19T18:07:38.599Z,10.60
2023-04-19T18:10:06.861Z,10.60
2023-04-19T18:12:34.385Z,10.50
2023-04-19T18:15:01.924Z,10.50
2023-04-19T18:17:30.138Z,10.50
2023-04-19T18:19:57.906Z,10.50
2023-04-19T18:22:25.222Z,10.50
2023-04-19T18:24:53.620Z,10.50
2023-04-19T18:27:21.339Z,10.50
2023-04-19T18:29:53.005Z,10.50
2023-04-19T18:32:22.705Z,10.60
2023-04-19T18:34:50.232Z,10.50
2023-04-19T18:37:17.931Z,10.50
2023-04-19T18:39:45.829Z,10.60
2023-04-19T18:42:13.351Z,10.60
2023-04-19T18:47:11.191Z,10.60
2023-04-19T18:49:38.629Z,10.60
2023-04-19T18:52:05.976Z,10.70
2023-04-19T18:54:33.568Z,10.60
2023-04-19T18:59:34.106Z,10.60
2023-04-19T19:02:01.508Z,10.50
2023-04-19T19:04:48.188Z,10.50
2023-04-19T19:07:34.107Z,10.50
2023-04-19T19:10:09.856Z,10.50
2023-04-19T19:12:44.142Z,10.50
2023-04-19T19:15:11.926Z,10.40
2023-04-19T19:17:39.371Z,10.30
2023-04-19T19:20:07.659Z,10.30
2023-04-19T19:22:35.367Z,10.30
2023-04-19T19:25:02.867Z,10.20
2023-04-19T19:27:30.645Z,10.20
2023-04-19T19:29:58.944Z,10.10
2023-04-19T19:32:26.227Z,10.10
2023-04-19T19:34:56.584Z,10.10
2023-04-19T19:37:26.883Z,10.00
2023-04-19T19:39:56.395Z,10.00
2023-04-19T19:42:24.929Z,9.90
2023-04-19T19:44:55.682Z,9.90
2023-04-19T19:47:24.450Z,9.80
2023-04-19T19:52:22.185Z,9.80
2023-04-19T19:54:49.791Z,9.80
2023-04-19T19:59:54.409Z,9.70
2023-04-19T20:02:23.055Z,9.70
2023-04-19T20:04:51.087Z,9.70
2023-04-19T20:07:37.295Z,9.70
2023-04-19T20:10:08.882Z,9.70
2023-04-19T20:12:37.292Z,9.60
2023-04-19T20:15:05.256Z,9.60
2023-04-19T20:17:32.676Z,9.60
2023-04-19T20:20:02.882Z,9.60
2023-04-19T20:22:30.442Z,9.60
2023-04-19T20:24:57.739Z,9.50
2023-04-19T20:27:25.495Z,9.60
2023-04-19T20:29:53.078Z,9.50
2023-04-19T20:32:20.727Z,9.50
2023-04-19T20:34:48.322Z,9.50
2023-04-19T20:37:17.418Z,9.50
2023-04-19T20:39:44.922Z,9.40
2023-04-19T20:42:12.493Z,9.40
2023-04-19T20:44:40.024Z,9.40
2023-04-19T20:47:09.112Z,9.40
2023-04-19T20:49:36.569Z,9.40
2023-04-19T20:52:04.056Z,9.30
2023-04-19T20:54:31.952Z,9.30
2023-04-19T20:57:04.552Z,9.20
2023-04-19T20:59:32.103Z,9.20
2023-04-19T21:02:00.281Z,9.20
2023-04-19T21:04:27.945Z,9.10
2023-04-19T21:06:55.549Z,9.10
2023-04-19T21:09:23.063Z,9.10
2023-04-19T21:11:50.487Z,9.10
2023-04-19T21:14:18.415Z,9.10
2023-04-19T21:16:45.878Z,9.10
2023-04-19T21:19:13.504Z,9.00
2023-04-19T21:21:41.349Z,8.90
2023-04-19T21:24:08.812Z,8.80
2023-04-19T21:26:36.276Z,8.80
2023-04-19T21:29:03.695Z,8.70
2023-04-19T21:31:31.417Z,8.60
2023-04-19T21:33:59.693Z,8.60
2023-04-19T21:36:28.469Z,8.50
2023-04-19T21:38:56.021Z,8.50
2023-04-19T21:41:23.594Z,8.30
2023-04-19T21:43:51.026Z,8.20
2023-04-19T21:46:18.520Z,8.10
2023-04-19T21:48:46.226Z,8.10
2023-04-19T21:51:14.334Z,8.10
2023-04-19T21:53:41.829Z,7.90
2023-04-19T21:56:09.323Z,7.80
2023-04-19T21:58:37.190Z,7.80
2023-04-19T22:01:04.586Z,7.80
2023-04-19T22:03:32.774Z,7.70
2023-04-19T22:06:02.041Z,7.70
2023-04-19T22:08:31.542Z,7.60
2023-04-19T22:11:01.168Z,7.60
2023-04-19T22:13:30.062Z,7.50
2023-04-19T22:15:57.645Z,7.50
2023-04-19T22:18:26.610Z,7.40
2023-04-19T22:20:55.962Z,7.40
2023-04-19T22:23:23.528Z,7.40
2023-04-19T22:25:50.921Z,7.30
2023-04-19T22:28:18.486Z,7.30
2023-04-19T22:30:46.005Z,7.20
2023-04-19T22:33:13.929Z,7.20
2023-04-19T22:35:41.484Z,7.10
2023-04-19T22:38:09.021Z,7.10
2023-04-19T22:40:37.185Z,7.00
2023-04-19T22:43:05.027Z,7.00
2023-04-19T22:45:32.772Z,7.00
2023-04-19T22:48:00.690Z,6.80
2023-04-19T22:50:28.725Z,6.80
2023-04-19T22:52:56.574Z,6.80
2023-04-19T22:55:24.257Z,6.70
2023-04-19T22:57:51.617Z,6.60
2023-04-19T23:00:19.869Z,6.60
2023-04-19T23:02:47.497Z,6.50
2023-04-19T23:05:15.444Z,6.50
2023-04-19T23:07:43.809Z,6.50
2023-04-19T23:10:12.418Z,6.40
2023-04-19T23:12:39.940Z,6.40
2023-04-19T23:15:08.214Z,6.30
2023-04-19T23:17:36.312Z,6.30
2023-04-19T23:20:05.951Z,6.20
2023-04-19T23:22:33.377Z,6.20
2023-04-19T23:25:00.919Z,6.20
2023-04-19T23:27:28.313Z,6.10
2023-04-19T23:29:56.011Z,6.10
2023-04-19T23:32:23.397Z,6.00
2023-04-19T23:34:51.003Z,6.00
2023-04-19T23:37:18.632Z,6.00
2023-04-19T23:39:46.000Z,5.90
2023-04-19T23:42:13.559Z,5.80
2023-04-19T23:44:43.462Z,5.80
2023-04-19T23:47:11.405Z,5.70
2023-04-19T23:49:38.883Z,5.80
2023-04-19T23:52:06.413Z,5.70
2023-04-19T23:54:34.025Z,5.70
2023-04-19T23:57:01.943Z,5.60
2023-04-19T23:59:29.611Z,5.60
